sensor_id;sensor_type;location;lat;lon;timestamp;P1;durP1;ratioP1;P2;durP2;ratioP2
22973;SDS011;11653;50.848;4.584;2023-04-24T00:02:08;31.33;;;15.67;;
22973;SDS011;11653;50.848;4.584;2023-04-24T00:04:36;24.73;;;14.30;;
22973;SDS011;11653;50.848;4.584;2023-04-24T00:07:05;29.67;;;14.87;;
22973;SDS011;11653;50.848;4.584;2023-04-24T00:09:31;32.43;;;15.40;;
22973;SDS011;11653;50.848;4.584;2023-04-24T00:11:58;27.93;;;13.60;;
22973;SDS011;11653;50.848;4.584;2023-04-24T00:14:24;18.07;;;11.37;;
22973;SDS011;11653;50.848;4.584;2023-04-24T00:16:49;27.67;;;12.47;;
22973;SDS011;11653;50.848;4.584;2023-04-24T00:19:15;29.37;;;15.57;;
22973;SDS011;11653;50.848;4.584;2023-04-24T00:21:41;25.63;;;13.77;;
22973;SDS011;11653;50.848;4.584;2023-04-24T00:24:07;25.27;;;13.97;;
22973;SDS011;11653;50.848;4.584;2023-04-24T00:26:34;28.70;;;15.20;;
22973;SDS011;11653;50.848;4.584;2023-04-24T00:28:59;26.87;;;13.90;;
22973;SDS011;11653;50.848;4.584;2023-04-24T00:31:25;29.23;;;14.17;;
22973;SDS011;11653;50.848;4.584;2023-04-24T00:33:51;26.43;;;14.23;;
22973;SDS011;11653;50.848;4.584;2023-04-24T00:36:17;28.17;;;15.30;;
22973;SDS011;11653;50.848;4.584;2023-04-24T00:38:44;28.83;;;14.37;;
22973;SDS011;11653;50.848;4.584;2023-04-24T00:41:10;27.17;;;13.93;;
22973;SDS011;11653;50.848;4.584;2023-04-24T00:43:36;24.50;;;14.33;;
22973;SDS011;11653;50.848;4.584;2023-04-24T00:46:02;34.20;;;16.73;;
22973;SDS011;11653;50.848;4.584;2023-04-24T00:48:28;29.40;;;15.20;;
22973;SDS011;11653;50.848;4.584;2023-04-24T00:50:55;36.63;;;18.23;;
22973;SDS011;11653;50.848;4.584;2023-04-24T00:53:22;24.37;;;14.57;;
22973;SDS011;11653;50.848;4.584;2023-04-24T00:55:47;25.93;;;14.87;;
22973;SDS011;11653;50.848;4.584;2023-04-24T00:58:13;28.87;;;16.23;;
22973;SDS011;11653;50.848;4.584;2023-04-24T01:00:39;23.10;;;12.97;;
22973;SDS011;11653;50.848;4.584;2023-04-24T01:03:05;27.53;;;15.73;;
22973;SDS011;11653;50.848;4.584;2023-04-24T01:05:32;28.07;;;15.47;;
22973;SDS011;11653;50.848;4.584;2023-04-24T01:07:59;26.33;;;14.70;;
22973;SDS011;11653;50.848;4.584;2023-04-24T01:10:25;23.47;;;11.30;;
22973;SDS011;11653;50.848;4.584;2023-04-24T01:12:54;23.67;;;14.07;;
22973;SDS011;11653;50.848;4.584;2023-04-24T01:15:20;26.47;;;15.30;;
22973;SDS011;11653;50.848;4.584;2023-04-24T01:17:46;26.77;;;15.30;;
22973;SDS011;11653;50.848;4.584;2023-04-24T01:20:11;26.00;;;14.10;;
22973;SDS011;11653;50.848;4.584;2023-04-24T01:22:38;30.93;;;15.30;;
22973;SDS011;11653;50.848;4.584;2023-04-24T01:25:04;25.80;;;13.67;;
22973;SDS011;11653;50.848;4.584;2023-04-24T01:27:30;25.93;;;13.40;;
22973;SDS011;11653;50.848;4.584;2023-04-24T01:29:56;22.33;;;12.93;;
22973;SDS011;11653;50.848;4.584;2023-04-24T01:32:22;23.20;;;13.27;;
22973;SDS011;11653;50.848;4.584;2023-04-24T01:34:49;19.57;;;12.80;;
22973;SDS011;11653;50.848;4.584;2023-04-24T01:37:16;24.23;;;13.03;;
22973;SDS011;11653;50.848;4.584;2023-04-24T01:39:42;26.40;;;13.93;;
22973;SDS011;11653;50.848;4.584;2023-04-24T01:42:11;21.13;;;13.00;;
22973;SDS011;11653;50.848;4.584;2023-04-24T01:44:40;19.70;;;12.30;;
22973;SDS011;11653;50.848;4.584;2023-04-24T01:47:07;24.23;;;13.27;;
22973;SDS011;11653;50.848;4.584;2023-04-24T01:49:32;23.33;;;13.33;;
22973;SDS011;11653;50.848;4.584;2023-04-24T01:51:58;22.80;;;13.27;;
22973;SDS011;11653;50.848;4.584;2023-04-24T01:54:24;18.57;;;12.10;;
22973;SDS011;11653;50.848;4.584;2023-04-24T01:56:50;20.93;;;11.27;;
22973;SDS011;11653;50.848;4.584;2023-04-24T01:59:16;23.27;;;11.83;;
22973;SDS011;11653;50.848;4.584;2023-04-24T02:01:43;19.80;;;12.63;;
22973;SDS011;11653;50.848;4.584;2023-04-24T02:04:08;17.37;;;10.83;;
22973;SDS011;11653;50.848;4.584;2023-04-24T02:06:34;21.80;;;12.73;;
22973;SDS011;11653;50.848;4.584;2023-04-24T02:09:00;25.73;;;13.47;;
22973;SDS011;11653;50.848;4.584;2023-04-24T02:11:26;27.43;;;12.80;;
22973;SDS011;11653;50.848;4.584;2023-04-24T02:13:52;23.23;;;13.03;;
22973;SDS011;11653;50.848;4.584;2023-04-24T02:16:18;24.83;;;13.53;;
22973;SDS011;11653;50.848;4.584;2023-04-24T02:18:44;22.57;;;13.17;;
22973;SDS011;11653;50.848;4.584;2023-04-24T02:21:10;23.43;;;14.07;;
22973;SDS011;11653;50.848;4.584;2023-04-24T02:23:36;22.90;;;12.97;;
22973;SDS011;11653;50.848;4.584;2023-04-24T02:26:01;25.43;;;14.10;;
22973;SDS011;11653;50.848;4.584;2023-04-24T02:28:27;30.70;;;15.33;;
22973;SDS011;11653;50.848;4.584;2023-04-24T02:30:53;35.50;;;17.53;;
22973;SDS011;11653;50.848;4.584;2023-04-24T02:33:18;31.10;;;17.03;;
22973;SDS011;11653;50.848;4.584;2023-04-24T02:35:44;23.23;;;15.43;;
22973;SDS011;11653;50.848;4.584;2023-04-24T02:38:10;26.47;;;14.97;;
22973;SDS011;11653;50.848;4.584;2023-04-24T02:40:36;23.73;;;11.30;;
22973;SDS011;11653;50.848;4.584;2023-04-24T02:43:01;25.17;;;14.77;;
22973;SDS011;11653;50.848;4.584;2023-04-24T02:45:27;20.57;;;12.67;;
22973;SDS011;11653;50.848;4.584;2023-04-24T02:47:53;27.43;;;15.53;;
22973;SDS011;11653;50.848;4.584;2023-04-24T02:50:18;28.27;;;14.30;;
22973;SDS011;11653;50.848;4.584;2023-04-24T02:52:44;23.53;;;15.73;;
22973;SDS011;11653;50.848;4.584;2023-04-24T02:55:10;22.63;;;15.07;;
22973;SDS011;11653;50.848;4.584;2023-04-24T02:57:35;21.97;;;13.17;;
22973;SDS011;11653;50.848;4.584;2023-04-24T03:00:02;26.53;;;14.57;;
22973;SDS011;11653;50.848;4.584;2023-04-24T03:02:31;23.37;;;13.07;;
22973;SDS011;11653;50.848;4.584;2023-04-24T03:04:56;30.40;;;13.40;;
22973;SDS011;11653;50.848;4.584;2023-04-24T03:07:22;23.00;;;12.73;;
22973;SDS011;11653;50.848;4.584;2023-04-24T03:09:49;23.87;;;13.07;;
22973;SDS011;11653;50.848;4.584;2023-04-24T03:12:14;22.50;;;12.47;;
22973;SDS011;11653;50.848;4.584;2023-04-24T03:14:42;21.27;;;11.83;;
22973;SDS011;11653;50.848;4.584;2023-04-24T03:17:08;19.40;;;11.40;;
22973;SDS011;11653;50.848;4.584;2023-04-24T03:19:34;19.77;;;11.70;;
22973;SDS011;11653;50.848;4.584;2023-04-24T03:22:01;17.37;;;11.73;;
22973;SDS011;11653;50.848;4.584;2023-04-24T03:24:27;21.00;;;11.80;;
22973;SDS011;11653;50.848;4.584;2023-04-24T03:26:53;19.73;;;11.43;;
22973;SDS011;11653;50.848;4.584;2023-04-24T03:29:19;17.10;;;10.60;;
22973;SDS011;11653;50.848;4.584;2023-04-24T03:31:44;15.70;;;9.70;;
22973;SDS011;11653;50.848;4.584;2023-04-24T03:34:10;16.60;;;10.07;;
22973;SDS011;11653;50.848;4.584;2023-04-24T03:36:36;20.33;;;10.50;;
22973;SDS011;11653;50.848;4.584;2023-04-24T03:39:01;13.40;;;8.53;;
22973;SDS011;11653;50.848;4.584;2023-04-24T03:41:27;15.23;;;9.90;;
22973;SDS011;11653;50.848;4.584;2023-04-24T03:43:53;14.60;;;10.03;;
22973;SDS011;11653;50.848;4.584;2023-04-24T03:46:18;17.93;;;11.13;;
22973;SDS011;11653;50.848;4.584;2023-04-24T03:48:44;15.43;;;9.07;;
22973;SDS011;11653;50.848;4.584;2023-04-24T03:51:10;14.77;;;8.90;;
22973;SDS011;11653;50.848;4.584;2023-04-24T03:53:35;15.57;;;9.57;;
22973;SDS011;11653;50.848;4.584;2023-04-24T03:56:01;19.60;;;10.30;;
22973;SDS011;11653;50.848;4.584;2023-04-24T03:58:27;16.87;;;11.47;;
22973;SDS011;11653;50.848;4.584;2023-04-24T04:00:52;14.17;;;10.23;;
22973;SDS011;11653;50.848;4.584;2023-04-24T04:03:18;17.67;;;9.03;;
22973;SDS011;11653;50.848;4.584;2023-04-24T04:05:44;11.40;;;8.17;;
22973;SDS011;11653;50.848;4.584;2023-04-24T04:08:10;12.27;;;6.77;;
22973;SDS011;11653;50.848;4.584;2023-04-24T04:10:35;12.00;;;8.40;;
22973;SDS011;11653;50.848;4.584;2023-04-24T04:13:01;12.97;;;8.77;;
22973;SDS011;11653;50.848;4.584;2023-04-24T04:15:27;17.17;;;9.37;;
22973;SDS011;11653;50.848;4.584;2023-04-24T04:17:52;12.53;;;7.97;;
22973;SDS011;11653;50.848;4.584;2023-04-24T04:20:18;12.53;;;8.80;;
22973;SDS011;11653;50.848;4.584;2023-04-24T04:22:43;11.47;;;6.80;;
22973;SDS011;11653;50.848;4.584;2023-04-24T04:25:09;13.67;;;8.00;;
22973;SDS011;11653;50.848;4.584;2023-04-24T04:27:36;10.40;;;7.60;;
22973;SDS011;11653;50.848;4.584;2023-04-24T04:30:02;15.80;;;8.80;;
22973;SDS011;11653;50.848;4.584;2023-04-24T04:32:30;11.90;;;8.70;;
22973;SDS011;11653;50.848;4.584;2023-04-24T04:34:59;11.13;;;7.20;;
22973;SDS011;11653;50.848;4.584;2023-04-24T04:37:29;13.10;;;8.00;;
22973;SDS011;11653;50.848;4.584;2023-04-24T04:39:56;12.73;;;8.87;;
22973;SDS011;11653;50.848;4.584;2023-04-24T04:42:23;14.00;;;9.30;;
22973;SDS011;11653;50.848;4.584;2023-04-24T04:44:49;12.90;;;9.03;;
22973;SDS011;11653;50.848;4.584;2023-04-24T04:47:15;16.77;;;8.90;;
22973;SDS011;11653;50.848;4.584;2023-04-24T04:49:42;12.30;;;8.23;;
22973;SDS011;11653;50.848;4.584;2023-04-24T04:52:08;14.87;;;9.60;;
22973;SDS011;11653;50.848;4.584;2023-04-24T04:54:34;14.43;;;8.93;;
22973;SDS011;11653;50.848;4.584;2023-04-24T04:57:00;9.47;;;7.07;;
22973;SDS011;11653;50.848;4.584;2023-04-24T04:59:26;12.53;;;8.73;;
22973;SDS011;11653;50.848;4.584;2023-04-24T05:01:52;12.00;;;8.27;;
22973;SDS011;11653;50.848;4.584;2023-04-24T05:04:18;12.47;;;8.73;;
22973;SDS011;11653;50.848;4.584;2023-04-24T05:06:44;16.33;;;9.70;;
22973;SDS011;11653;50.848;4.584;2023-04-24T05:09:09;13.23;;;8.73;;
22973;SDS011;11653;50.848;4.584;2023-04-24T05:11:35;16.27;;;9.83;;
22973;SDS011;11653;50.848;4.584;2023-04-24T05:14:01;18.87;;;10.67;;
22973;SDS011;11653;50.848;4.584;2023-04-24T05:16:26;19.70;;;10.27;;
22973;SDS011;11653;50.848;4.584;2023-04-24T05:18:52;17.43;;;10.63;;
22973;SDS011;11653;50.848;4.584;2023-04-24T05:21:18;16.97;;;9.33;;
22973;SDS011;11653;50.848;4.584;2023-04-24T05:23:43;15.13;;;7.83;;
22973;SDS011;11653;50.848;4.584;2023-04-24T05:26:09;15.23;;;10.20;;
22973;SDS011;11653;50.848;4.584;2023-04-24T05:28:35;17.40;;;11.60;;
22973;SDS011;11653;50.848;4.584;2023-04-24T05:31:01;20.67;;;11.33;;
22973;SDS011;11653;50.848;4.584;2023-04-24T05:33:27;21.40;;;11.90;;
22973;SDS011;11653;50.848;4.584;2023-04-24T05:35:53;21.93;;;11.77;;
22973;SDS011;11653;50.848;4.584;2023-04-24T05:38:19;21.90;;;10.60;;
22973;SDS011;11653;50.848;4.584;2023-04-24T05:40:45;22.53;;;12.77;;
22973;SDS011;11653;50.848;4.584;2023-04-24T05:43:11;22.53;;;12.57;;
22973;SDS011;11653;50.848;4.584;2023-04-24T05:45:37;23.67;;;13.23;;
22973;SDS011;11653;50.848;4.584;2023-04-24T05:48:03;25.30;;;13.70;;
22973;SDS011;11653;50.848;4.584;2023-04-24T05:50:30;21.70;;;13.53;;
22973;SDS011;11653;50.848;4.584;2023-04-24T05:52:56;22.87;;;11.27;;
22973;SDS011;11653;50.848;4.584;2023-04-24T05:55:26;27.60;;;13.27;;
22973;SDS011;11653;50.848;4.584;2023-04-24T05:57:53;22.93;;;12.93;;
22973;SDS011;11653;50.848;4.584;2023-04-24T06:00:18;22.97;;;12.40;;
22973;SDS011;11653;50.848;4.584;2023-04-24T06:02:45;21.73;;;13.37;;
22973;SDS011;11653;50.848;4.584;2023-04-24T06:05:12;26.57;;;13.93;;
22973;SDS011;11653;50.848;4.584;2023-04-24T06:07:37;23.13;;;13.50;;
22973;SDS011;11653;50.848;4.584;2023-04-24T06:10:03;24.47;;;13.37;;
22973;SDS011;11653;50.848;4.584;2023-04-24T06:12:29;23.10;;;13.57;;
22973;SDS011;11653;50.848;4.584;2023-04-24T06:14:55;23.27;;;14.07;;
22973;SDS011;11653;50.848;4.584;2023-04-24T06:17:21;27.70;;;15.50;;
22973;SDS011;11653;50.848;4.584;2023-04-24T06:19:46;26.83;;;14.57;;
22973;SDS011;11653;50.848;4.584;2023-04-24T06:22:12;19.97;;;11.73;;
22973;SDS011;11653;50.848;4.584;2023-04-24T06:24:39;23.93;;;11.57;;
22973;SDS011;11653;50.848;4.584;2023-04-24T06:27:05;24.20;;;13.23;;
22973;SDS011;11653;50.848;4.584;2023-04-24T06:29:31;20.13;;;11.23;;
22973;SDS011;11653;50.848;4.584;2023-04-24T06:31:58;28.27;;;14.57;;
22973;SDS011;11653;50.848;4.584;2023-04-24T06:34:24;25.73;;;13.53;;
22973;SDS011;11653;50.848;4.584;2023-04-24T06:36:49;26.30;;;13.63;;
22973;SDS011;11653;50.848;4.584;2023-04-24T06:39:15;29.23;;;15.00;;
22973;SDS011;11653;50.848;4.584;2023-04-24T06:41:41;26.10;;;15.73;;
22973;SDS011;11653;50.848;4.584;2023-04-24T06:44:07;30.47;;;15.90;;
22973;SDS011;11653;50.848;4.584;2023-04-24T06:46:32;27.07;;;14.63;;
22973;SDS011;11653;50.848;4.584;2023-04-24T06:48:58;26.60;;;12.27;;
22973;SDS011;11653;50.848;4.584;2023-04-24T06:51:24;25.80;;;14.70;;
22973;SDS011;11653;50.848;4.584;2023-04-24T06:53:53;30.20;;;16.90;;
22973;SDS011;11653;50.848;4.584;2023-04-24T06:56:19;30.83;;;16.13;;
22973;SDS011;11653;50.848;4.584;2023-04-24T06:58:46;28.70;;;16.20;;
22973;SDS011;11653;50.848;4.584;2023-04-24T07:01:13;30.37;;;14.97;;
22973;SDS011;11653;50.848;4.584;2023-04-24T07:03:39;33.53;;;17.80;;
22973;SDS011;11653;50.848;4.584;2023-04-24T07:06:05;35.93;;;18.60;;
22973;SDS011;11653;50.848;4.584;2023-04-24T07:08:30;33.73;;;16.70;;
22973;SDS011;11653;50.848;4.584;2023-04-24T07:10:58;34.13;;;17.93;;
22973;SDS011;11653;50.848;4.584;2023-04-24T07:13:24;35.30;;;16.67;;
22973;SDS011;11653;50.848;4.584;2023-04-24T07:15:51;37.03;;;18.60;;
22973;SDS011;11653;50.848;4.584;2023-04-24T07:18:18;36.53;;;16.13;;
22973;SDS011;11653;50.848;4.584;2023-04-24T07:20:45;34.90;;;17.40;;
22973;SDS011;11653;50.848;4.584;2023-04-24T07:23:10;34.47;;;18.93;;
22973;SDS011;11653;50.848;4.584;2023-04-24T07:25:36;42.33;;;18.10;;
22973;SDS011;11653;50.848;4.584;2023-04-24T07:28:03;42.43;;;18.10;;
22973;SDS011;11653;50.848;4.584;2023-04-24T07:30:29;31.63;;;16.90;;
22973;SDS011;11653;50.848;4.584;2023-04-24T07:32:55;38.07;;;17.33;;
22973;SDS011;11653;50.848;4.584;2023-04-24T07:35:21;32.80;;;17.13;;
22973;SDS011;11653;50.848;4.584;2023-04-24T07:37:47;28.87;;;14.67;;
22973;SDS011;11653;50.848;4.584;2023-04-24T07:40:13;31.50;;;15.50;;
22973;SDS011;11653;50.848;4.584;2023-04-24T07:42:39;29.67;;;16.50;;
22973;SDS011;11653;50.848;4.584;2023-04-24T07:45:05;34.80;;;17.13;;
22973;SDS011;11653;50.848;4.584;2023-04-24T07:47:31;25.37;;;13.30;;
22973;SDS011;11653;50.848;4.584;2023-04-24T07:49:57;27.10;;;12.03;;
22973;SDS011;11653;50.848;4.584;2023-04-24T07:52:24;26.13;;;14.37;;
22973;SDS011;11653;50.848;4.584;2023-04-24T07:54:50;24.50;;;12.00;;
22973;SDS011;11653;50.848;4.584;2023-04-24T07:57:17;25.20;;;13.83;;
22973;SDS011;11653;50.848;4.584;2023-04-24T07:59:43;27.57;;;11.97;;
22973;SDS011;11653;50.848;4.584;2023-04-24T08:02:09;22.97;;;10.63;;
22973;SDS011;11653;50.848;4.584;2023-04-24T08:04:35;15.63;;;9.10;;
22973;SDS011;11653;50.848;4.584;2023-04-24T08:07:00;17.10;;;9.97;;
22973;SDS011;11653;50.848;4.584;2023-04-24T08:09:26;17.73;;;7.97;;
22973;SDS011;11653;50.848;4.584;2023-04-24T08:11:51;11.83;;;6.07;;
22973;SDS011;11653;50.848;4.584;2023-04-24T08:14:18;20.77;;;8.13;;
22973;SDS011;11653;50.848;4.584;2023-04-24T08:16:43;15.87;;;8.13;;
22973;SDS011;11653;50.848;4.584;2023-04-24T08:19:10;13.20;;;7.30;;
22973;SDS011;11653;50.848;4.584;2023-04-24T08:21:35;21.20;;;9.63;;
22973;SDS011;11653;50.848;4.584;2023-04-24T08:24:01;17.93;;;9.90;;
22973;SDS011;11653;50.848;4.584;2023-04-24T08:26:30;19.77;;;9.30;;
22973;SDS011;11653;50.848;4.584;2023-04-24T08:28:56;20.80;;;10.40;;
22973;SDS011;11653;50.848;4.584;2023-04-24T08:31:22;20.07;;;9.90;;
22973;SDS011;11653;50.848;4.584;2023-04-24T08:33:49;25.47;;;11.53;;
22973;SDS011;11653;50.848;4.584;2023-04-24T08:36:15;21.60;;;10.37;;
22973;SDS011;11653;50.848;4.584;2023-04-24T08:38:41;24.30;;;10.77;;
22973;SDS011;11653;50.848;4.584;2023-04-24T08:41:07;32.13;;;8.00;;
22973;SDS011;11653;50.848;4.584;2023-04-24T08:43:35;13.60;;;7.17;;
22973;SDS011;11653;50.848;4.584;2023-04-24T08:46:03;14.40;;;6.27;;
22973;SDS011;11653;50.848;4.584;2023-04-24T08:48:31;11.60;;;5.13;;
22973;SDS011;11653;50.848;4.584;2023-04-24T08:50:58;13.37;;;5.87;;
22973;SDS011;11653;50.848;4.584;2023-04-24T08:53:24;16.47;;;6.60;;
22973;SDS011;11653;50.848;4.584;2023-04-24T08:55:50;12.43;;;6.20;;
22973;SDS011;11653;50.848;4.584;2023-04-24T08:58:19;7.93;;;3.87;;
22973;SDS011;11653;50.848;4.584;2023-04-24T09:00:44;9.60;;;5.73;;
22973;SDS011;11653;50.848;4.584;2023-04-24T09:03:15;12.47;;;6.07;;
22973;SDS011;11653;50.848;4.584;2023-04-24T09:05:42;13.77;;;6.33;;
22973;SDS011;11653;50.848;4.584;2023-04-24T09:08:10;11.93;;;6.47;;
22973;SDS011;11653;50.848;4.584;2023-04-24T09:10:38;18.10;;;8.13;;
22973;SDS011;11653;50.848;4.584;2023-04-24T09:13:05;17.67;;;6.23;;
22973;SDS011;11653;50.848;4.584;2023-04-24T09:15:31;9.57;;;4.70;;
22973;SDS011;11653;50.848;4.584;2023-04-24T09:17:57;13.77;;;5.10;;
22973;SDS011;11653;50.848;4.584;2023-04-24T09:20:23;12.10;;;5.73;;
22973;SDS011;11653;50.848;4.584;2023-04-24T09:22:48;11.07;;;5.03;;
22973;SDS011;11653;50.848;4.584;2023-04-24T09:25:20;8.60;;;4.03;;
22973;SDS011;11653;50.848;4.584;2023-04-24T09:27:46;10.00;;;5.13;;
22973;SDS011;11653;50.848;4.584;2023-04-24T09:30:12;13.27;;;5.90;;
22973;SDS011;11653;50.848;4.584;2023-04-24T09:32:39;10.67;;;5.07;;
22973;SDS011;11653;50.848;4.584;2023-04-24T09:37:34;13.00;;;4.63;;
22973;SDS011;11653;50.848;4.584;2023-04-24T09:40:11;9.57;;;4.63;;
22973;SDS011;11653;50.848;4.584;2023-04-24T09:42:44;10.57;;;4.30;;
22973;SDS011;11653;50.848;4.584;2023-04-24T09:45:20;9.47;;;4.30;;
22973;SDS011;11653;50.848;4.584;2023-04-24T09:47:46;8.63;;;4.50;;
22973;SDS011;11653;50.848;4.584;2023-04-24T09:50:18;9.70;;;4.70;;
22973;SDS011;11653;50.848;4.584;2023-04-24T09:52:45;9.87;;;4.90;;
22973;SDS011;11653;50.848;4.584;2023-04-24T09:55:16;10.17;;;4.80;;
22973;SDS011;11653;50.848;4.584;2023-04-24T09:57:53;17.10;;;5.53;;
22973;SDS011;11653;50.848;4.584;2023-04-24T10:00:24;11.97;;;5.17;;
22973;SDS011;11653;50.848;4.584;2023-04-24T10:02:56;13.10;;;5.47;;
22973;SDS011;11653;50.848;4.584;2023-04-24T10:05:23;8.50;;;4.53;;
22973;SDS011;11653;50.848;4.584;2023-04-24T10:08:00;7.90;;;5.30;;
22973;SDS011;11653;50.848;4.584;2023-04-24T10:10:28;12.50;;;4.50;;
22973;SDS011;11653;50.848;4.584;2023-04-24T10:12:55;8.87;;;4.53;;
22973;SDS011;11653;50.848;4.584;2023-04-24T10:15:21;9.97;;;4.73;;
22973;SDS011;11653;50.848;4.584;2023-04-24T10:17:50;9.33;;;3.27;;
22973;SDS011;11653;50.848;4.584;2023-04-24T10:20:23;10.93;;;3.60;;
22973;SDS011;11653;50.848;4.584;2023-04-24T10:22:51;6.23;;;4.03;;
22973;SDS011;11653;50.848;4.584;2023-04-24T10:25:19;11.33;;;3.90;;
22973;SDS011;11653;50.848;4.584;2023-04-24T10:27:46;9.23;;;4.00;;
22973;SDS011;11653;50.848;4.584;2023-04-24T10:30:13;10.30;;;3.87;;
22973;SDS011;11653;50.848;4.584;2023-04-24T10:32:39;8.83;;;4.47;;
22973;SDS011;11653;50.848;4.584;2023-04-24T10:35:09;7.90;;;3.77;;
22973;SDS011;11653;50.848;4.584;2023-04-24T10:37:37;6.60;;;3.40;;
22973;SDS011;11653;50.848;4.584;2023-04-24T10:40:06;8.47;;;4.23;;
22973;SDS011;11653;50.848;4.584;2023-04-24T10:42:33;10.03;;;4.00;;
22973;SDS011;11653;50.848;4.584;2023-04-24T10:44:59;8.13;;;4.27;;
22973;SDS011;11653;50.848;4.584;2023-04-24T10:47:38;7.63;;;4.13;;
22973;SDS011;11653;50.848;4.584;2023-04-24T10:50:15;6.10;;;3.80;;
22973;SDS011;11653;50.848;4.584;2023-04-24T10:52:47;11.17;;;4.50;;
22973;SDS011;11653;50.848;4.584;2023-04-24T10:55:16;7.40;;;3.60;;
22973;SDS011;11653;50.848;4.584;2023-04-24T10:58:02;7.47;;;4.00;;
22973;SDS011;11653;50.848;4.584;2023-04-24T11:00:29;6.90;;;3.90;;
22973;SDS011;11653;50.848;4.584;2023-04-24T11:02:55;7.57;;;4.80;;
22973;SDS011;11653;50.848;4.584;2023-04-24T11:05:22;8.57;;;4.13;;
22973;SDS011;11653;50.848;4.584;2023-04-24T11:10:38;10.80;;;4.73;;
22973;SDS011;11653;50.848;4.584;2023-04-24T11:13:05;8.77;;;4.43;;
22973;SDS011;11653;50.848;4.584;2023-04-24T11:15:31;9.33;;;4.77;;
22973;SDS011;11653;50.848;4.584;2023-04-24T11:17:59;9.53;;;5.47;;
22973;SDS011;11653;50.848;4.584;2023-04-24T11:20:24;12.33;;;4.70;;
22973;SDS011;11653;50.848;4.584;2023-04-24T11:22:52;8.83;;;4.40;;
22973;SDS011;11653;50.848;4.584;2023-04-24T11:25:19;5.60;;;4.33;;
22973;SDS011;11653;50.848;4.584;2023-04-24T11:27:47;7.27;;;3.73;;
22973;SDS011;11653;50.848;4.584;2023-04-24T11:30:18;10.13;;;5.13;;
22973;SDS011;11653;50.848;4.584;2023-04-24T11:32:47;7.70;;;4.97;;
22973;SDS011;11653;50.848;4.584;2023-04-24T11:35:18;9.97;;;5.30;;
22973;SDS011;11653;50.848;4.584;2023-04-24T11:37:53;10.83;;;5.87;;
22973;SDS011;11653;50.848;4.584;2023-04-24T11:40:19;8.70;;;5.30;;
22973;SDS011;11653;50.848;4.584;2023-04-24T11:42:48;6.77;;;5.20;;
22973;SDS011;11653;50.848;4.584;2023-04-24T11:45:21;9.20;;;5.17;;
22973;SDS011;11653;50.848;4.584;2023-04-24T11:47:48;11.63;;;5.67;;
22973;SDS011;11653;50.848;4.584;2023-04-24T11:50:15;13.50;;;4.93;;
22973;SDS011;11653;50.848;4.584;2023-04-24T11:52:47;9.70;;;5.87;;
22973;SDS011;11653;50.848;4.584;2023-04-24T11:57:43;7.40;;;4.17;;
22973;SDS011;11653;50.848;4.584;2023-04-24T12:00:17;8.73;;;4.63;;
22973;SDS011;11653;50.848;4.584;2023-04-24T12:02:47;8.33;;;4.60;;
22973;SDS011;11653;50.848;4.584;2023-04-24T12:05:24;8.23;;;4.77;;
22973;SDS011;11653;50.848;4.584;2023-04-24T12:07:53;8.60;;;5.40;;
22973;SDS011;11653;50.848;4.584;2023-04-24T12:10:22;7.40;;;4.57;;
22973;SDS011;11653;50.848;4.584;2023-04-24T12:12:50;8.70;;;5.07;;
22973;SDS011;11653;50.848;4.584;2023-04-24T12:15:17;10.17;;;4.93;;
22973;SDS011;11653;50.848;4.584;2023-04-24T12:17:44;7.63;;;4.83;;
22973;SDS011;11653;50.848;4.584;2023-04-24T12:20:10;13.10;;;5.77;;
22973;SDS011;11653;50.848;4.584;2023-04-24T12:22:50;10.13;;;5.27;;
22973;SDS011;11653;50.848;4.584;2023-04-24T12:25:21;12.33;;;5.57;;
22973;SDS011;11653;50.848;4.584;2023-04-24T12:27:53;10.80;;;6.33;;
22973;SDS011;11653;50.848;4.584;2023-04-24T12:30:20;8.00;;;6.00;;
22973;SDS011;11653;50.848;4.584;2023-04-24T12:32:52;8.67;;;5.57;;
22973;SDS011;11653;50.848;4.584;2023-04-24T12:35:20;9.97;;;6.07;;
22973;SDS011;11653;50.848;4.584;2023-04-24T12:37:47;11.40;;;5.90;;
22973;SDS011;11653;50.848;4.584;2023-04-24T12:40:14;9.13;;;5.10;;
22973;SDS011;11653;50.848;4.584;2023-04-24T12:42:47;8.20;;;4.53;;
22973;SDS011;11653;50.848;4.584;2023-04-24T12:45:14;7.20;;;4.93;;
22973;SDS011;11653;50.848;4.584;2023-04-24T12:47:41;7.57;;;4.17;;
22973;SDS011;11653;50.848;4.584;2023-04-24T12:50:09;7.53;;;4.60;;
22973;SDS011;11653;50.848;4.584;2023-04-24T12:52:39;7.97;;;4.30;;
22973;SDS011;11653;50.848;4.584;2023-04-24T12:55:06;8.30;;;4.87;;
22973;SDS011;11653;50.848;4.584;2023-04-24T12:57:37;8.20;;;5.00;;
22973;SDS011;11653;50.848;4.584;2023-04-24T13:00:04;8.87;;;4.50;;
22973;SDS011;11653;50.848;4.584;2023-04-24T13:02:31;7.73;;;4.53;;
22973;SDS011;11653;50.848;4.584;2023-04-24T13:04:58;12.67;;;4.30;;
22973;SDS011;11653;50.848;4.584;2023-04-24T13:07:25;9.27;;;4.80;;
22973;SDS011;11653;50.848;4.584;2023-04-24T13:09:52;5.93;;;4.30;;
22973;SDS011;11653;50.848;4.584;2023-04-24T13:12:19;6.83;;;4.30;;
22973;SDS011;11653;50.848;4.584;2023-04-24T13:14:45;7.73;;;4.50;;
22973;SDS011;11653;50.848;4.584;2023-04-24T13:17:11;7.00;;;4.40;;
22973;SDS011;11653;50.848;4.584;2023-04-24T13:19:41;6.90;;;4.07;;
22973;SDS011;11653;50.848;4.584;2023-04-24T13:22:11;7.67;;;4.03;;
22973;SDS011;11653;50.848;4.584;2023-04-24T13:24:38;6.37;;;3.60;;
22973;SDS011;11653;50.848;4.584;2023-04-24T13:27:05;7.07;;;4.00;;
22973;SDS011;11653;50.848;4.584;2023-04-24T13:29:32;6.23;;;3.80;;
22973;SDS011;11653;50.848;4.584;2023-04-24T13:31:57;5.70;;;3.60;;
22973;SDS011;11653;50.848;4.584;2023-04-24T13:34:23;4.13;;;3.30;;
22973;SDS011;11653;50.848;4.584;2023-04-24T13:36:50;7.07;;;3.57;;
22973;SDS011;11653;50.848;4.584;2023-04-24T13:39:18;5.97;;;3.47;;
22973;SDS011;11653;50.848;4.584;2023-04-24T13:41:43;4.80;;;3.10;;
22973;SDS011;11653;50.848;4.584;2023-04-24T13:44:10;6.30;;;3.80;;
22973;SDS011;11653;50.848;4.584;2023-04-24T13:46:35;6.73;;;3.77;;
22973;SDS011;11653;50.848;4.584;2023-04-24T13:49:01;6.83;;;4.00;;
22973;SDS011;11653;50.848;4.584;2023-04-24T13:51:28;4.23;;;3.17;;
22973;SDS011;11653;50.848;4.584;2023-04-24T13:53:55;6.77;;;3.40;;
22973;SDS011;11653;50.848;4.584;2023-04-24T13:56:21;7.13;;;3.53;;
22973;SDS011;11653;50.848;4.584;2023-04-24T13:58:47;5.63;;;3.20;;
22973;SDS011;11653;50.848;4.584;2023-04-24T14:01:13;11.67;;;5.90;;
22973;SDS011;11653;50.848;4.584;2023-04-24T14:03:40;4.67;;;2.43;;
22973;SDS011;11653;50.848;4.584;2023-04-24T14:06:06;7.03;;;3.17;;
22973;SDS011;11653;50.848;4.584;2023-04-24T14:08:32;4.10;;;2.70;;
22973;SDS011;11653;50.848;4.584;2023-04-24T14:10:58;5.83;;;2.40;;
22973;SDS011;11653;50.848;4.584;2023-04-24T14:13:23;5.27;;;2.77;;
22973;SDS011;11653;50.848;4.584;2023-04-24T14:15:49;6.00;;;2.90;;
22973;SDS011;11653;50.848;4.584;2023-04-24T14:18:17;6.37;;;3.03;;
22973;SDS011;11653;50.848;4.584;2023-04-24T14:20:43;5.73;;;2.77;;
22973;SDS011;11653;50.848;4.584;2023-04-24T14:23:09;8.33;;;3.17;;
22973;SDS011;11653;50.848;4.584;2023-04-24T14:25:35;4.57;;;2.57;;
22973;SDS011;11653;50.848;4.584;2023-04-24T14:28:00;6.43;;;3.10;;
22973;SDS011;11653;50.848;4.584;2023-04-24T14:30:26;6.67;;;3.27;;
22973;SDS011;11653;50.848;4.584;2023-04-24T14:32:52;6.13;;;2.40;;
22973;SDS011;11653;50.848;4.584;2023-04-24T14:35:19;6.67;;;2.70;;
22973;SDS011;11653;50.848;4.584;2023-04-24T14:37:44;9.13;;;3.20;;
22973;SDS011;11653;50.848;4.584;2023-04-24T14:40:10;8.30;;;3.00;;